Nordanhav — OZ2125 — position and weather

sailwx.info

Track history (hours):
 
Tides and Currents Weather Stations Pressure Air Temp Water Temp Dewpoint Dewpoint Depression Visibility Wind Speed Wind Dir Waves Ship Positions

Nordanhav

Last reported at 2017-Nov-18 09:58 UTC. Time now 2017-Nov-18 10:28 UTC.
Position N 44°02' E 010°02'.

Length 128 m; draft 4.8 m.

Type: Cargo ship. MMSI: 231839000.

Date/timePositionNaut miles runAvg speedWind from/ knotsBaromVisibWave heightAir tempDewpointWater temp
2017-Nov-18 09:58N 44°02' E 010°02'0 0.0
2017-Nov-18 09:22N 44°02' E 010°02'0 0.0
2017-Nov-18 08:58N 44°02' E 010°02'0 0.0
2017-Nov-18 08:22N 44°02' E 010°02'0 0.0
2017-Nov-18 07:58N 44°02' E 010°02'0 0.0
2017-Nov-18 07:28N 44°02' E 010°02'0 0.0
2017-Nov-18 06:58N 44°02' E 010°02'0 0.0
2017-Nov-18 05:42N 44°02' E 010°02'0 0.2
2017-Nov-18 05:30N 44°02' E 010°02'2 3.1
2017-Nov-18 05:00N 44°00' E 010°03'4 8.5
2017-Nov-18 04:30N 43°58' E 009°58'4 8.0
2017-Nov-18 04:00N 43°58' E 009°52'4 8.6
2017-Nov-18 03:31N 43°58' E 009°46'4 8.5
2017-Nov-18 03:00N 44°00' E 009°41'4 8.5
2017-Nov-18 02:31N 44°02' E 009°36'4 8.1
2017-Nov-18 02:01N 44°04' E 009°31'4 7.9
2017-Nov-18 01:31N 44°06' E 009°26'4 7.3
2017-Nov-18 01:01N 44°08' E 009°22'3 6.6
2017-Nov-18 00:31N 44°10' E 009°18'3 6.9
2017-Nov-18 00:00N 44°12' E 009°14'3 6.7
2017-Nov-17 23:30N 44°13' E 009°10'3 6.9
2017-Nov-17 23:01N 44°15' E 009°06'3 6.5
2017-Nov-17 22:31N 44°17' E 009°02'3 6.6
2017-Nov-17 22:01N 44°19' E 008°59'3 6.4
2017-Nov-17 21:31N 44°22' E 008°57'3 5.0
2017-Nov-17 21:00N 44°24' E 008°54'0 0.2
2017-Nov-17 20:30N 44°24' E 008°54'0 0.0
2017-Nov-17 20:00N 44°24' E 008°54'0 0.0
2017-Nov-17 19:30N 44°24' E 008°54'0 0.0
2017-Nov-17 19:00N 44°24' E 008°54'0 0.0
2017-Nov-17 18:30N 44°24' E 008°54'0 0.0
2017-Nov-17 18:00N 44°24' E 008°54'0 0.0
2017-Nov-17 17:30N 44°24' E 008°54'0 0.0
2017-Nov-17 17:00N 44°24' E 008°54'0 0.0
2017-Nov-17 16:30N 44°24' E 008°54'0 0.0
2017-Nov-17 16:00N 44°24' E 008°54'0 0.0
2017-Nov-17 15:30N 44°24' E 008°54'0 0.0
2017-Nov-17 15:00N 44°24' E 008°54'0 0.0
2017-Nov-17 14:30N 44°24' E 008°54'0 0.0
2017-Nov-17 14:00N 44°24' E 008°54'0 0.0
2017-Nov-17 13:27N 44°24' E 008°54'0 0.0
2017-Nov-17 12:54N 44°24' E 008°54'0 0.0
2017-Nov-17 12:30N 44°24' E 008°54'0 0.1
2017-Nov-17 12:00N 44°24' E 008°54'0 0.0
2017-Nov-17 11:30N 44°24' E 008°54'0 0.0
2017-Nov-17 10:57N 44°24' E 008°54'0 0.0
2017-Nov-17 10:30N 44°24' E 008°54'0 0.0
2017-Nov-17 09:57N 44°24' E 008°54'0 0.0
2017-Nov-17 09:30N 44°24' E 008°54'0 0.0
2017-Nov-17 08:51N 44°24' E 008°54'0 0.0
2017-Nov-17 08:27N 44°24' E 008°54'0 0.0
2017-Nov-17 08:00N 44°24' E 008°54'0 0.0
2017-Nov-17 07:27N 44°24' E 008°54'0 0.0
2017-Nov-17 07:00N 44°24' E 008°54'0 0.0
2017-Nov-17 06:30N 44°24' E 008°54'0 0.0
2017-Nov-17 06:00N 44°24' E 008°54'0 0.0
2017-Nov-17 05:30N 44°24' E 008°54'0 0.0
2017-Nov-17 04:57N 44°24' E 008°54'0 0.0
2017-Nov-17 04:30N 44°24' E 008°54'0 0.0
2017-Nov-17 03:57N 44°24' E 008°54'0 0.0
2017-Nov-17 03:30N 44°24' E 008°54'0 0.0
2017-Nov-17 03:00N 44°24' E 008°54'0 0.0
2017-Nov-17 02:26N 44°24' E 008°54'0 0.0
2017-Nov-17 01:59N 44°24' E 008°54'0 0.0
2017-Nov-17 01:29N 44°24' E 008°54'0 0.1
2017-Nov-17 00:59N 44°24' E 008°54'0 0.1
2017-Nov-17 00:29N 44°24' E 008°54'0 0.0
2017-Nov-16 23:59N 44°24' E 008°54'0 0.0
2017-Nov-16 23:29N 44°24' E 008°54'0 0.0
2017-Nov-16 22:59N 44°24' E 008°54'0 0.0
2017-Nov-16 22:29N 44°24' E 008°54'0 0.0
2017-Nov-16 21:59N 44°24' E 008°54'0 0.0
2017-Nov-16 21:29N 44°24' E 008°54'0 0.0
2017-Nov-16 20:59N 44°24' E 008°54'0 0.0
2017-Nov-16 20:29N 44°24' E 008°54'0 0.0
2017-Nov-16 19:59N 44°24' E 008°54'0 0.0
2017-Nov-16 19:29N 44°24' E 008°54'0 0.0
2017-Nov-16 18:59N 44°24' E 008°54'0 0.0
2017-Nov-16 18:29N 44°24' E 008°54'0 0.0
2017-Nov-16 17:59N 44°24' E 008°54'0 0.0
2017-Nov-16 17:29N 44°24' E 008°54'0 0.0
2017-Nov-16 16:59N 44°24' E 008°54'0 0.0
2017-Nov-16 16:29N 44°24' E 008°54'0 0.0
2017-Nov-16 15:59N 44°24' E 008°54'0 0.0
2017-Nov-16 15:29N 44°24' E 008°54'0 0.0
2017-Nov-16 14:59N 44°24' E 008°54'0 0.0
2017-Nov-16 14:29N 44°24' E 008°54'0 0.0
2017-Nov-16 13:59N 44°24' E 008°54'0 0.0
2017-Nov-16 13:29N 44°24' E 008°54'0 0.0
2017-Nov-16 12:59N 44°24' E 008°54'0 0.0
2017-Nov-16 12:29N 44°24' E 008°54'0 0.0
2017-Nov-16 11:59N 44°24' E 008°54'0 0.0
2017-Nov-16 11:29N 44°24' E 008°54'0 0.0
2017-Nov-16 10:59N 44°24' E 008°54'0 0.0
2017-Nov-16 10:29N 44°24' E 008°54'0 0.0
2017-Nov-16 09:56N 44°24' E 008°54'0 0.0
2017-Nov-16 09:29N 44°24' E 008°54'0 0.0
2017-Nov-16 08:56N 44°24' E 008°54'0 0.0
2017-Nov-16 08:29N 44°24' E 008°54'0 0.0
2017-Nov-16 07:56N 44°24' E 008°54'0 0.0
2017-Nov-16 07:26N 44°24' E 008°54'0 0.0
2017-Nov-16 06:56N 44°24' E 008°54'0 0.0
2017-Nov-16 06:29N 44°24' E 008°54'0 0.0
2017-Nov-16 05:56N 44°24' E 008°54'0 0.0
2017-Nov-16 05:29N 44°24' E 008°54'0 0.0
2017-Nov-16 04:56N 44°24' E 008°54'0 0.0
2017-Nov-16 04:26N 44°24' E 008°54'0 0.0
2017-Nov-16 03:59N 44°24' E 008°54'0 0.0
2017-Nov-16 03:26N 44°24' E 008°54'0 0.0
2017-Nov-16 02:59N 44°24' E 008°54'0 0.0
2017-Nov-16 02:26N 44°24' E 008°54'0 0.0
2017-Nov-16 01:59N 44°24' E 008°54'0 0.0
2017-Nov-16 01:29N 44°24' E 008°54'0 0.0
2017-Nov-16 00:56N 44°24' E 008°54'0 0.0
2017-Nov-16 00:29N 44°24' E 008°54'0 0.0
2017-Nov-15 23:59N 44°24' E 008°54'0 0.0
2017-Nov-15 23:26N 44°24' E 008°54'0 0.0
2017-Nov-15 22:56N 44°24' E 008°54'0 0.0
2017-Nov-15 22:29N 44°24' E 008°54'0 0.0
2017-Nov-15 21:59N 44°24' E 008°54'0 0.0
2017-Nov-15 21:29N 44°24' E 008°54'0 0.0
2017-Nov-15 20:59N 44°24' E 008°54'0 0.0
2017-Nov-15 20:29N 44°24' E 008°54'0 0.0
2017-Nov-15 19:59N 44°24' E 008°54'0 0.0
2017-Nov-15 19:29N 44°24' E 008°54'0 0.0
2017-Nov-15 18:59N 44°24' E 008°54'0 0.0
2017-Nov-15 18:29N 44°24' E 008°54'0 0.0
2017-Nov-15 17:59N 44°24' E 008°54'0 0.0
2017-Nov-15 17:29N 44°24' E 008°54'0 0.0
2017-Nov-15 16:59N 44°24' E 008°54'0 0.0
2017-Nov-15 16:29N 44°24' E 008°54'0 0.0
2017-Nov-15 15:56N 44°24' E 008°54'0 0.0
2017-Nov-15 15:29N 44°24' E 008°54'0 0.0
2017-Nov-15 14:59N 44°24' E 008°54'0 0.0
2017-Nov-15 14:29N 44°24' E 008°54'0 0.0
2017-Nov-15 13:49N 44°24' E 008°54'0 0.0
2017-Nov-15 13:28N 44°24' E 008°54'0 0.0
2017-Nov-15 12:58N 44°24' E 008°54'0 0.0
2017-Nov-15 12:28N 44°24' E 008°54'0 0.0
2017-Nov-15 11:58N 44°24' E 008°54'0 0.0
2017-Nov-15 11:28N 44°24' E 008°54'0 0.0
2017-Nov-15 10:58N 44°24' E 008°54'0 0.0
2017-Nov-15 10:28N 44°24' E 008°54'0 0.0
2017-Nov-15 09:58N 44°24' E 008°54'0 0.0
2017-Nov-15 09:28N 44°24' E 008°54'0 0.0
2017-Nov-15 08:58N 44°24' E 008°54'0 0.0
2017-Nov-15 08:28N 44°24' E 008°54'0 0.0
2017-Nov-15 07:58N 44°24' E 008°54'0 0.0
2017-Nov-15 07:28N 44°24' E 008°54'0 0.0
2017-Nov-15 06:58N 44°24' E 008°54'0 0.0
2017-Nov-15 06:25N 44°24' E 008°54'0 0.0
2017-Nov-15 05:58N 44°24' E 008°54'0 0.0
2017-Nov-15 05:25N 44°24' E 008°54'0 0.0
2017-Nov-15 04:55N 44°24' E 008°54'0 0.0
2017-Nov-15 04:28N 44°24' E 008°54'0 0.0
2017-Nov-15 03:58N 44°24' E 008°54'0 0.0
2017-Nov-15 03:28N 44°24' E 008°54'0 0.0
2017-Nov-15 02:58N 44°24' E 008°54'0 0.0
2017-Nov-15 02:28N 44°24' E 008°54'0 0.0
2017-Nov-15 01:58N 44°24' E 008°54'0 0.0
2017-Nov-15 01:28N 44°24' E 008°54'0 0.0
2017-Nov-15 00:58N 44°24' E 008°54'0 0.0
2017-Nov-15 00:25N 44°24' E 008°54'0 0.0
2017-Nov-14 23:58N 44°24' E 008°54'0 0.0
2017-Nov-14 23:22N 44°24' E 008°54'0 0.0
2017-Nov-14 22:58N 44°24' E 008°54'0 0.0
2017-Nov-14 22:28N 44°24' E 008°54'0 0.0
2017-Nov-14 21:58N 44°24' E 008°54'0 0.0
2017-Nov-14 21:28N 44°24' E 008°54'0 0.0
2017-Nov-14 20:58N 44°24' E 008°54'0 0.0
2017-Nov-14 20:28N 44°24' E 008°54'0 0.0
2017-Nov-14 19:58N 44°24' E 008°54'0 0.0
2017-Nov-14 19:28N 44°24' E 008°54'0 0.0
2017-Nov-14 18:58N 44°24' E 008°54'0 0.0
2017-Nov-14 18:28N 44°24' E 008°54'0 0.0
2017-Nov-14 17:58N 44°24' E 008°54'0 0.0
2017-Nov-14 17:28N 44°24' E 008°54'0 0.0
2017-Nov-14 16:58N 44°24' E 008°54'0 0.0
2017-Nov-14 16:28N 44°24' E 008°54'0 0.0
2017-Nov-14 15:58N 44°24' E 008°54'0 0.0
2017-Nov-14 15:28N 44°24' E 008°54'0 0.0
2017-Nov-14 14:58N 44°24' E 008°54'0 0.0
2017-Nov-14 14:28N 44°24' E 008°54'0 0.0
2017-Nov-14 13:52N 44°24' E 008°54'0 0.0
2017-Nov-14 13:28N 44°24' E 008°54'0 0.0
2017-Nov-14 12:58N 44°24' E 008°54'0 0.0
2017-Nov-14 12:28N 44°24' E 008°54'0 0.0
2017-Nov-14 11:58N 44°24' E 008°54'0 0.0
2017-Nov-14 11:28N 44°24' E 008°54'0 0.0
2017-Nov-14 10:58N 44°24' E 008°54'0 0.0
2017-Nov-14 10:28N 44°24' E 008°54'0 0.0
2017-Nov-14 09:58N 44°24' E 008°54'0 0.0
2017-Nov-14 09:28N 44°24' E 008°54'0 0.0
2017-Nov-14 08:55N 44°24' E 008°54'0 0.0
2017-Nov-14 08:28N 44°24' E 008°54'0 0.3
2017-Nov-14 08:00N 44°24' E 008°54'1 2.9
2017-Nov-14 07:30N 44°23' E 008°56'2 4.1
2017-Nov-14 07:00N 44°22' E 008°58'1 2.5
2017-Nov-14 06:30N 44°21' E 008°59'3 5.1
2017-Nov-14 06:00N 44°18' E 008°60'3 5.2
2017-Nov-14 05:31N 44°16' E 009°01'3 5.3
2017-Nov-14 05:00N 44°13' E 009°02'3 5.4
2017-Nov-14 04:31N 44°11' E 009°04'3 5.3
2017-Nov-14 04:00N 44°08' E 009°05'2 4.9
2017-Nov-14 03:30N 44°06' E 009°06'2 4.9
2017-Nov-14 03:00N 44°04' E 009°07'3 5.6
2017-Nov-14 02:30N 44°01' E 009°09'4 7.1
2017-Nov-14 02:00N 43°58' E 009°11'3 6.7
2017-Nov-14 01:30N 43°55' E 009°13'3 6.6
2017-Nov-14 01:00N 43°52' E 009°14'3 6.6
2017-Nov-14 00:30N 43°49' E 009°16'3 6.3
2017-Nov-14 00:00N 43°46' E 009°17'3 6.1
2017-Nov-13 23:30N 43°43' E 009°19'3 6.4
2017-Nov-13 23:00N 43°40' E 009°20'3 6.1
2017-Nov-13 22:30N 43°37' E 009°22'3 6.6
2017-Nov-13 22:00N 43°34' E 009°24'285 7.8
2017-Nov-12 09:41N 38°50' E 009°18'2 9.7
2017-Nov-12 09:30N 38°49' E 009°16'5 9.8
2017-Nov-12 08:58N 38°47' E 009°10'5 9.8
2017-Nov-12 08:30N 38°46' E 009°04'8 9.8
2017-Nov-12 07:42N 38°43' E 008°54'2 9.9
2017-Nov-12 07:29N 38°43' E 008°52'5 9.8
2017-Nov-12 06:55N 38°41' E 008°45'4 9.8
2017-Nov-12 06:29N 38°40' E 008°40'  
2017-Nov-08 14:58N 35°57' W 005°16'4 8.9
2017-Nov-08 14:30N 35°54' W 005°19'0 0.7
2017-Nov-08 13:58N 35°54' W 005°19'0 0.0
2017-Nov-08 13:25N 35°54' W 005°19'0 0.0
2017-Nov-08 12:58N 35°54' W 005°19'0 0.0
2017-Nov-08 12:28N 35°54' W 005°19'0 0.0
2017-Nov-08 11:58N 35°54' W 005°19'0 0.0
2017-Nov-08 11:28N 35°54' W 005°19'0 0.1
2017-Nov-08 10:58N 35°54' W 005°19'0 0.1
2017-Nov-08 10:28N 35°54' W 005°19'  
Track history (hours):
 
Tides and Currents Weather Stations Pressure Air Temp Water Temp Dewpoint Dewpoint Depression Visibility Wind Speed Wind Dir Waves Ship Positions

Nordanhav

Last reported at 2017-Nov-18 09:58 UTC. Time now 2017-Nov-18 10:28 UTC.
Position N 44°02' E 010°02'.

Length 128 m; draft 4.8 m.

Type: Cargo ship. MMSI: 231839000.

Date/timePositionNaut miles runAvg speedWind from/ knotsBaromVisibWave heightAir tempDewpointWater temp
2017-Nov-18 09:58N 44°02' E 010°02'0 0.0
2017-Nov-18 09:22N 44°02' E 010°02'0 0.0
2017-Nov-18 08:58N 44°02' E 010°02'0 0.0
2017-Nov-18 08:22N 44°02' E 010°02'0 0.0
2017-Nov-18 07:58N 44°02' E 010°02'0 0.0
2017-Nov-18 07:28N 44°02' E 010°02'0 0.0
2017-Nov-18 06:58N 44°02' E 010°02'0 0.0
2017-Nov-18 05:42N 44°02' E 010°02'0 0.2
2017-Nov-18 05:30N 44°02' E 010°02'2 3.1
2017-Nov-18 05:00N 44°00' E 010°03'4 8.5
2017-Nov-18 04:30N 43°58' E 009°58'4 8.0
2017-Nov-18 04:00N 43°58' E 009°52'4 8.6
2017-Nov-18 03:31N 43°58' E 009°46'4 8.5
2017-Nov-18 03:00N 44°00' E 009°41'4 8.5
2017-Nov-18 02:31N 44°02' E 009°36'4 8.1
2017-Nov-18 02:01N 44°04' E 009°31'4 7.9
2017-Nov-18 01:31N 44°06' E 009°26'4 7.3
2017-Nov-18 01:01N 44°08' E 009°22'3 6.6
2017-Nov-18 00:31N 44°10' E 009°18'3 6.9
2017-Nov-18 00:00N 44°12' E 009°14'3 6.7
2017-Nov-17 23:30N 44°13' E 009°10'3 6.9
2017-Nov-17 23:01N 44°15' E 009°06'3 6.5
2017-Nov-17 22:31N 44°17' E 009°02'3 6.6
2017-Nov-17 22:01N 44°19' E 008°59'3 6.4
2017-Nov-17 21:31N 44°22' E 008°57'3 5.0
2017-Nov-17 21:00N 44°24' E 008°54'0 0.2
2017-Nov-17 20:30N 44°24' E 008°54'0 0.0
2017-Nov-17 20:00N 44°24' E 008°54'0 0.0
2017-Nov-17 19:30N 44°24' E 008°54'0 0.0
2017-Nov-17 19:00N 44°24' E 008°54'0 0.0
2017-Nov-17 18:30N 44°24' E 008°54'0 0.0
2017-Nov-17 18:00N 44°24' E 008°54'0 0.0
2017-Nov-17 17:30N 44°24' E 008°54'0 0.0
2017-Nov-17 17:00N 44°24' E 008°54'0 0.0
2017-Nov-17 16:30N 44°24' E 008°54'0 0.0
2017-Nov-17 16:00N 44°24' E 008°54'0 0.0
2017-Nov-17 15:30N 44°24' E 008°54'0 0.0
2017-Nov-17 15:00N 44°24' E 008°54'0 0.0
2017-Nov-17 14:30N 44°24' E 008°54'0 0.0
2017-Nov-17 14:00N 44°24' E 008°54'0 0.0
2017-Nov-17 13:27N 44°24' E 008°54'0 0.0
2017-Nov-17 12:54N 44°24' E 008°54'0 0.0
2017-Nov-17 12:30N 44°24' E 008°54'0 0.1
2017-Nov-17 12:00N 44°24' E 008°54'0 0.0
2017-Nov-17 11:30N 44°24' E 008°54'0 0.0
2017-Nov-17 10:57N 44°24' E 008°54'0 0.0
2017-Nov-17 10:30N 44°24' E 008°54'0 0.0
2017-Nov-17 09:57N 44°24' E 008°54'0 0.0
2017-Nov-17 09:30N 44°24' E 008°54'0 0.0
2017-Nov-17 08:51N 44°24' E 008°54'0 0.0
2017-Nov-17 08:27N 44°24' E 008°54'0 0.0
2017-Nov-17 08:00N 44°24' E 008°54'0 0.0
2017-Nov-17 07:27N 44°24' E 008°54'0 0.0
2017-Nov-17 07:00N 44°24' E 008°54'0 0.0
2017-Nov-17 06:30N 44°24' E 008°54'0 0.0
2017-Nov-17 06:00N 44°24' E 008°54'0 0.0
2017-Nov-17 05:30N 44°24' E 008°54'0 0.0
2017-Nov-17 04:57N 44°24' E 008°54'0 0.0
2017-Nov-17 04:30N 44°24' E 008°54'0 0.0
2017-Nov-17 03:57N 44°24' E 008°54'0 0.0
2017-Nov-17 03:30N 44°24' E 008°54'0 0.0
2017-Nov-17 03:00N 44°24' E 008°54'0 0.0
2017-Nov-17 02:26N 44°24' E 008°54'0 0.0
2017-Nov-17 01:59N 44°24' E 008°54'0 0.0
2017-Nov-17 01:29N 44°24' E 008°54'0 0.1
2017-Nov-17 00:59N 44°24' E 008°54'0 0.1
2017-Nov-17 00:29N 44°24' E 008°54'0 0.0
2017-Nov-16 23:59N 44°24' E 008°54'0 0.0
2017-Nov-16 23:29N 44°24' E 008°54'0 0.0
2017-Nov-16 22:59N 44°24' E 008°54'0 0.0
2017-Nov-16 22:29N 44°24' E 008°54'0 0.0
2017-Nov-16 21:59N 44°24' E 008°54'0 0.0
2017-Nov-16 21:29N 44°24' E 008°54'0 0.0
2017-Nov-16 20:59N 44°24' E 008°54'0 0.0
2017-Nov-16 20:29N 44°24' E 008°54'0 0.0
2017-Nov-16 19:59N 44°24' E 008°54'0 0.0
2017-Nov-16 19:29N 44°24' E 008°54'0 0.0
2017-Nov-16 18:59N 44°24' E 008°54'0 0.0
2017-Nov-16 18:29N 44°24' E 008°54'0 0.0
2017-Nov-16 17:59N 44°24' E 008°54'0 0.0
2017-Nov-16 17:29N 44°24' E 008°54'0 0.0
2017-Nov-16 16:59N 44°24' E 008°54'0 0.0
2017-Nov-16 16:29N 44°24' E 008°54'0 0.0
2017-Nov-16 15:59N 44°24' E 008°54'0 0.0
2017-Nov-16 15:29N 44°24' E 008°54'0 0.0
2017-Nov-16 14:59N 44°24' E 008°54'0 0.0
2017-Nov-16 14:29N 44°24' E 008°54'0 0.0
2017-Nov-16 13:59N 44°24' E 008°54'0 0.0
2017-Nov-16 13:29N 44°24' E 008°54'0 0.0
2017-Nov-16 12:59N 44°24' E 008°54'0 0.0
2017-Nov-16 12:29N 44°24' E 008°54'0 0.0
2017-Nov-16 11:59N 44°24' E 008°54'0 0.0
2017-Nov-16 11:29N 44°24' E 008°54'0 0.0
2017-Nov-16 10:59N 44°24' E 008°54'0 0.0
2017-Nov-16 10:29N 44°24' E 008°54'0 0.0
2017-Nov-16 09:56N 44°24' E 008°54'0 0.0
2017-Nov-16 09:29N 44°24' E 008°54'0 0.0
2017-Nov-16 08:56N 44°24' E 008°54'0 0.0
2017-Nov-16 08:29N 44°24' E 008°54'0 0.0
2017-Nov-16 07:56N 44°24' E 008°54'0 0.0
2017-Nov-16 07:26N 44°24' E 008°54'0 0.0
2017-Nov-16 06:56N 44°24' E 008°54'0 0.0
2017-Nov-16 06:29N 44°24' E 008°54'0 0.0
2017-Nov-16 05:56N 44°24' E 008°54'0 0.0
2017-Nov-16 05:29N 44°24' E 008°54'0 0.0
2017-Nov-16 04:56N 44°24' E 008°54'0 0.0
2017-Nov-16 04:26N 44°24' E 008°54'0 0.0
2017-Nov-16 03:59N 44°24' E 008°54'0 0.0
2017-Nov-16 03:26N 44°24' E 008°54'0 0.0
2017-Nov-16 02:59N 44°24' E 008°54'0 0.0
2017-Nov-16 02:26N 44°24' E 008°54'0 0.0
2017-Nov-16 01:59N 44°24' E 008°54'0 0.0
2017-Nov-16 01:29N 44°24' E 008°54'0 0.0
2017-Nov-16 00:56N 44°24' E 008°54'0 0.0
2017-Nov-16 00:29N 44°24' E 008°54'0 0.0
2017-Nov-15 23:59N 44°24' E 008°54'0 0.0
2017-Nov-15 23:26N 44°24' E 008°54'0 0.0
2017-Nov-15 22:56N 44°24' E 008°54'0 0.0
2017-Nov-15 22:29N 44°24' E 008°54'0 0.0
2017-Nov-15 21:59N 44°24' E 008°54'0 0.0
2017-Nov-15 21:29N 44°24' E 008°54'0 0.0
2017-Nov-15 20:59N 44°24' E 008°54'0 0.0
2017-Nov-15 20:29N 44°24' E 008°54'0 0.0
2017-Nov-15 19:59N 44°24' E 008°54'0 0.0
2017-Nov-15 19:29N 44°24' E 008°54'0 0.0
2017-Nov-15 18:59N 44°24' E 008°54'0 0.0
2017-Nov-15 18:29N 44°24' E 008°54'0 0.0
2017-Nov-15 17:59N 44°24' E 008°54'0 0.0
2017-Nov-15 17:29N 44°24' E 008°54'0 0.0
2017-Nov-15 16:59N 44°24' E 008°54'0 0.0
2017-Nov-15 16:29N 44°24' E 008°54'0 0.0
2017-Nov-15 15:56N 44°24' E 008°54'0 0.0
2017-Nov-15 15:29N 44°24' E 008°54'0 0.0
2017-Nov-15 14:59N 44°24' E 008°54'0 0.0
2017-Nov-15 14:29N 44°24' E 008°54'0 0.0
2017-Nov-15 13:49N 44°24' E 008°54'0 0.0
2017-Nov-15 13:28N 44°24' E 008°54'0 0.0
2017-Nov-15 12:58N 44°24' E 008°54'0 0.0
2017-Nov-15 12:28N 44°24' E 008°54'0 0.0
2017-Nov-15 11:58N 44°24' E 008°54'0 0.0
2017-Nov-15 11:28N 44°24' E 008°54'0 0.0
2017-Nov-15 10:58N 44°24' E 008°54'0 0.0
2017-Nov-15 10:28N 44°24' E 008°54'0 0.0
2017-Nov-15 09:58N 44°24' E 008°54'0 0.0
2017-Nov-15 09:28N 44°24' E 008°54'0 0.0
2017-Nov-15 08:58N 44°24' E 008°54'0 0.0
2017-Nov-15 08:28N 44°24' E 008°54'0 0.0
2017-Nov-15 07:58N 44°24' E 008°54'0 0.0
2017-Nov-15 07:28N 44°24' E 008°54'0 0.0
2017-Nov-15 06:58N 44°24' E 008°54'0 0.0
2017-Nov-15 06:25N 44°24' E 008°54'0 0.0
2017-Nov-15 05:58N 44°24' E 008°54'0 0.0
2017-Nov-15 05:25N 44°24' E 008°54'0 0.0
2017-Nov-15 04:55N 44°24' E 008°54'0 0.0
2017-Nov-15 04:28N 44°24' E 008°54'0 0.0
2017-Nov-15 03:58N 44°24' E 008°54'0 0.0
2017-Nov-15 03:28N 44°24' E 008°54'0 0.0
2017-Nov-15 02:58N 44°24' E 008°54'0 0.0
2017-Nov-15 02:28N 44°24' E 008°54'0 0.0
2017-Nov-15 01:58N 44°24' E 008°54'0 0.0
2017-Nov-15 01:28N 44°24' E 008°54'0 0.0
2017-Nov-15 00:58N 44°24' E 008°54'0 0.0
2017-Nov-15 00:25N 44°24' E 008°54'0 0.0
2017-Nov-14 23:58N 44°24' E 008°54'0 0.0
2017-Nov-14 23:22N 44°24' E 008°54'0 0.0
2017-Nov-14 22:58N 44°24' E 008°54'0 0.0
2017-Nov-14 22:28N 44°24' E 008°54'0 0.0
2017-Nov-14 21:58N 44°24' E 008°54'0 0.0
2017-Nov-14 21:28N 44°24' E 008°54'0 0.0
2017-Nov-14 20:58N 44°24' E 008°54'0 0.0
2017-Nov-14 20:28N 44°24' E 008°54'0 0.0
2017-Nov-14 19:58N 44°24' E 008°54'0 0.0
2017-Nov-14 19:28N 44°24' E 008°54'0 0.0
2017-Nov-14 18:58N 44°24' E 008°54'0 0.0
2017-Nov-14 18:28N 44°24' E 008°54'0 0.0
2017-Nov-14 17:58N 44°24' E 008°54'0 0.0
2017-Nov-14 17:28N 44°24' E 008°54'0 0.0
2017-Nov-14 16:58N 44°24' E 008°54'0 0.0
2017-Nov-14 16:28N 44°24' E 008°54'0 0.0
2017-Nov-14 15:58N 44°24' E 008°54'0 0.0
2017-Nov-14 15:28N 44°24' E 008°54'0 0.0
2017-Nov-14 14:58N 44°24' E 008°54'0 0.0
2017-Nov-14 14:28N 44°24' E 008°54'0 0.0
2017-Nov-14 13:52N 44°24' E 008°54'0 0.0
2017-Nov-14 13:28N 44°24' E 008°54'0 0.0
2017-Nov-14 12:58N 44°24' E 008°54'0 0.0
2017-Nov-14 12:28N 44°24' E 008°54'0 0.0
2017-Nov-14 11:58N 44°24' E 008°54'0 0.0
2017-Nov-14 11:28N 44°24' E 008°54'0 0.0
2017-Nov-14 10:58N 44°24' E 008°54'0 0.0
2017-Nov-14 10:28N 44°24' E 008°54'0 0.0
2017-Nov-14 09:58N 44°24' E 008°54'0 0.0
2017-Nov-14 09:28N 44°24' E 008°54'0 0.0
2017-Nov-14 08:55N 44°24' E 008°54'0 0.0
2017-Nov-14 08:28N 44°24' E 008°54'0 0.3
2017-Nov-14 08:00N 44°24' E 008°54'1 2.9
2017-Nov-14 07:30N 44°23' E 008°56'2 4.1
2017-Nov-14 07:00N 44°22' E 008°58'1 2.5
2017-Nov-14 06:30N 44°21' E 008°59'3 5.1
2017-Nov-14 06:00N 44°18' E 008°60'3 5.2
2017-Nov-14 05:31N 44°16' E 009°01'3 5.3
2017-Nov-14 05:00N 44°13' E 009°02'3 5.4
2017-Nov-14 04:31N 44°11' E 009°04'3 5.3
2017-Nov-14 04:00N 44°08' E 009°05'2 4.9
2017-Nov-14 03:30N 44°06' E 009°06'2 4.9
2017-Nov-14 03:00N 44°04' E 009°07'3 5.6
2017-Nov-14 02:30N 44°01' E 009°09'4 7.1
2017-Nov-14 02:00N 43°58' E 009°11'3 6.7
2017-Nov-14 01:30N 43°55' E 009°13'3 6.6
2017-Nov-14 01:00N 43°52' E 009°14'3 6.6
2017-Nov-14 00:30N 43°49' E 009°16'3 6.3
2017-Nov-14 00:00N 43°46' E 009°17'3 6.1
2017-Nov-13 23:30N 43°43' E 009°19'3 6.4
2017-Nov-13 23:00N 43°40' E 009°20'3 6.1
2017-Nov-13 22:30N 43°37' E 009°22'3 6.6
2017-Nov-13 22:00N 43°34' E 009°24'285 7.8
2017-Nov-12 09:41N 38°50' E 009°18'2 9.7
2017-Nov-12 09:30N 38°49' E 009°16'5 9.8
2017-Nov-12 08:58N 38°47' E 009°10'5 9.8
2017-Nov-12 08:30N 38°46' E 009°04'8 9.8
2017-Nov-12 07:42N 38°43' E 008°54'2 9.9
2017-Nov-12 07:29N 38°43' E 008°52'5 9.8
2017-Nov-12 06:55N 38°41' E 008°45'4 9.8
2017-Nov-12 06:29N 38°40' E 008°40'  
2017-Nov-08 14:58N 35°57' W 005°16'4 8.9
2017-Nov-08 14:30N 35°54' W 005°19'0 0.7
2017-Nov-08 13:58N 35°54' W 005°19'0 0.0
2017-Nov-08 13:25N 35°54' W 005°19'0 0.0
2017-Nov-08 12:58N 35°54' W 005°19'0 0.0
2017-Nov-08 12:28N 35°54' W 005°19'0 0.0
2017-Nov-08 11:58N 35°54' W 005°19'0 0.0
2017-Nov-08 11:28N 35°54' W 005°19'0 0.1
2017-Nov-08 10:58N 35°54' W 005°19'0 0.1
2017-Nov-08 10:28N 35°54' W 005°19'  

Dump ship's entire track history